Time;durP1;ratioP1;P1;durP2;ratioP2;P2;SDS_P1;SDS_P2;PMS_P1;PMS_P2;Temp;Humidity;BMP_temperature;BMP_pressure;BME280_temperature;BME280_humidity;BME280_pressure;Samples;Min_cycle;Max_cycle;Signal;HPM_P1;HPM_P2
2022/03/10 00:02:16;;;;;;;40.58;21.02;;;;;;;6.52;58.93;102320.56;5051373;28;20388;-70
2022/03/10 00:04:42;;;;;;;48.05;22.52;;;;;;;6.50;58.94;102324.81;5060718;28;20033;-70
2022/03/10 00:07:07;;;;;;;42.28;20.17;;;;;;;6.44;59.34;102323.56;5040400;28;20025;-70
2022/03/10 00:09:33;;;;;;;44.95;21.63;;;;;;;6.40;59.10;102333.84;5058443;28;20063;-70
2022/03/10 00:12:02;;;;;;;44.72;21.48;;;;;;;6.37;59.11;102328.44;5061000;28;20024;-70
2022/03/10 00:14:28;;;;;;;39.63;21.42;;;;;;;6.35;59.08;102335.28;5054311;28;20442;-70
2022/03/10 00:16:54;;;;;;;38.15;20.73;;;;;;;6.35;59.00;102339.63;5056284;28;20025;-70
2022/03/10 00:19:20;;;;;;;45.78;22.83;;;;;;;6.27;59.24;102333.94;5068842;28;20060;-70
2022/03/10 00:21:46;;;;;;;45.42;21.88;;;;;;;6.24;59.34;102331.16;5054663;28;20510;-70
2022/03/10 00:24:12;;;;;;;37.83;20.85;;;;;;;6.18;59.78;102321.22;5066342;28;20443;-70
2022/03/10 00:26:37;;;;;;;43.30;20.80;;;;;;;6.16;59.73;102324.56;5073256;28;20032;-70
2022/03/10 00:29:04;;;;;;;38.22;21.02;;;;;;;6.12;59.72;102323.50;5065516;28;20035;-70
2022/03/10 00:31:29;;;;;;;42.88;21.48;;;;;;;6.10;60.17;102317.28;5040542;28;20021;-70
2022/03/10 00:33:55;;;;;;;47.20;22.73;;;;;;;6.06;60.85;102316.22;5047238;28;20380;-70
2022/03/10 00:36:20;;;;;;;46.40;21.50;;;;;;;6.05;61.18;102319.63;5061217;28;20020;-70
2022/03/10 00:38:45;;;;;;;45.38;20.83;;;;;;;6.02;59.55;102314.22;5044390;28;20029;-70
2022/03/10 00:41:10;;;;;;;45.85;22.05;;;;;;;6.00;60.22;102315.84;5058315;28;20375;-70
2022/03/10 00:43:36;;;;;;;39.97;20.75;;;;;;;5.96;60.81;102305.09;5056752;28;20106;-71
2022/03/10 00:46:02;;;;;;;44.88;21.73;;;;;;;5.91;60.68;102310.94;5070570;28;20033;-70
2022/03/10 00:48:27;;;;;;;45.40;22.95;;;;;;;5.88;60.47;102310.75;5065902;28;20586;-70
2022/03/10 00:50:53;;;;;;;41.28;21.77;;;;;;;5.81;60.77;102311.19;5068963;28;20029;-70
2022/03/10 00:53:21;;;;;;;44.42;22.90;;;;;;;5.80;61.67;102316.34;5064705;28;20048;-70
2022/03/10 00:55:46;;;;;;;42.90;21.60;;;;;;;5.78;61.53;102312.72;5057316;28;20411;-70
2022/03/10 00:58:11;;;;;;;43.10;22.45;;;;;;;5.73;61.82;102305.50;5062254;28;20065;-70
2022/03/10 01:00:37;;;;;;;41.88;20.83;;;;;;;5.67;62.12;102313.00;5057582;28;20032;-70
2022/03/10 01:03:03;;;;;;;40.97;20.92;;;;;;;5.65;62.55;102314.59;5064700;28;20070;-70
2022/03/10 01:05:28;;;;;;;40.47;21.08;;;;;;;5.65;62.26;102317.22;5043029;28;20040;-71
2022/03/10 01:07:54;;;;;;;48.30;23.30;;;;;;;5.62;62.67;102311.81;5066946;28;20020;-70
2022/03/10 01:10:20;;;;;;;47.40;20.48;;;;;;;5.61;62.36;102312.59;5066407;28;20031;-71
2022/03/10 01:12:45;;;;;;;48.10;22.08;;;;;;;5.54;62.63;102315.66;5058063;28;20488;-70
2022/03/10 01:15:13;;;;;;;42.35;20.88;;;;;;;5.50;63.21;102316.28;5060839;28;20029;-70
2022/03/10 01:17:38;;;;;;;37.70;21.17;;;;;;;5.39;63.73;102315.63;5041380;28;20020;-69
2022/03/10 01:20:05;;;;;;;44.28;21.27;;;;;;;5.33;64.25;102312.63;5062767;28;20050;-70
2022/03/10 01:22:30;;;;;;;46.40;20.98;;;;;;;5.26;64.84;102315.69;5043036;28;20021;-70
2022/03/10 01:24:55;;;;;;;44.35;22.38;;;;;;;5.24;65.17;102318.19;5061318;28;20108;-69
2022/03/10 01:27:21;;;;;;;45.72;22.77;;;;;;;5.20;64.59;102316.19;5063351;28;20034;-69
2022/03/10 01:29:46;;;;;;;45.05;21.58;;;;;;;5.17;65.46;102311.69;5064764;28;20510;-69
2022/03/10 01:32:12;;;;;;;48.47;22.60;;;;;;;5.13;66.00;102314.00;5050418;28;20028;-69
2022/03/10 01:34:37;;;;;;;44.72;22.42;;;;;;;5.09;65.59;102317.22;5044970;28;20028;-70
2022/03/10 01:37:02;;;;;;;42.55;22.50;;;;;;;5.07;65.68;102314.50;5060349;28;20025;-70
2022/03/10 01:39:30;;;;;;;41.38;21.83;;;;;;;5.03;66.05;102318.66;5060022;28;20029;-70
2022/03/10 01:41:56;;;;;;;45.42;22.67;;;;;;;4.93;66.70;102316.25;5040900;28;20093;-70
2022/03/10 01:44:22;;;;;;;57.28;22.50;;;;;;;4.84;68.08;102310.47;5061718;28;20029;-70
2022/03/10 01:46:47;;;;;;;41.10;21.88;;;;;;;4.84;68.92;102310.47;5061602;28;20366;-69
2022/03/10 01:49:12;;;;;;;39.55;22.55;;;;;;;4.80;68.72;102313.69;5042960;28;20054;-70
2022/03/10 01:51:38;;;;;;;44.10;22.30;;;;;;;4.78;68.54;102316.19;5041008;28;20122;-70
2022/03/10 01:54:03;;;;;;;51.67;23.05;;;;;;;4.77;69.03;102309.16;5055893;28;20087;-70
2022/03/10 01:56:31;;;;;;;47.13;23.77;;;;;;;4.77;68.25;102316.09;5064413;28;20107;-70
2022/03/10 01:58:56;;;;;;;43.45;21.95;;;;;;;4.75;68.27;102310.78;5062670;28;20477;-70
2022/03/10 02:01:22;;;;;;;45.65;22.08;;;;;;;4.71;68.88;102314.00;5055870;28;20032;-70
2022/03/10 02:03:51;;;;;;;44.85;23.10;;;;;;;4.66;68.93;102316.31;5055958;28;20108;-69
2022/03/10 02:06:16;;;;;;;39.78;20.95;;;;;;;4.65;69.63;102322.34;5049123;28;20082;-70
2022/03/10 02:11:26;;;;;;;;;;;;;;;4.68;70.21;102319.91;5055759;28;20119;-70
2022/03/10 02:13:51;;;;;;;40.75;20.27;;;;;;;4.65;70.23;102321.41;5061411;28;19999;-69
2022/03/10 02:19:03;;;;;;;40.88;21.27;;;;;;;4.59;71.59;102321.94;5058607;28;20112;-69
2022/03/10 02:21:29;;;;;;;47.53;22.23;;;;;;;4.60;72.22;102321.13;5047621;28;20173;-69
2022/03/10 02:23:54;;;;;;;40.58;20.58;;;;;;;4.57;71.61;102320.91;5053227;28;20104;-69
2022/03/10 02:26:20;;;;;;;43.25;21.92;;;;;;;4.53;71.06;102324.13;5066912;28;20028;-69
2022/03/10 02:28:46;;;;;;;42.10;21.77;;;;;;;4.53;71.45;102324.13;5062387;28;20037;-70
2022/03/10 02:31:11;;;;;;;43.67;21.40;;;;;;;4.53;71.70;102318.91;5044618;28;20082;-69
2022/03/10 02:33:37;;;;;;;46.20;22.52;;;;;;;4.51;71.41;102320.53;5056158;28;20033;-70
2022/03/10 02:36:04;;;;;;;41.75;22.08;;;;;;;4.49;71.71;102323.03;5051079;28;20020;-70
2022/03/10 02:38:31;;;;;;;43.33;21.08;;;;;;;4.45;71.92;102322.72;5047684;28;20024;-70
2022/03/10 02:40:57;;;;;;;42.28;21.88;;;;;;;4.33;73.21;102321.13;5067652;28;20025;-70
2022/03/10 02:43:23;;;;;;;42.08;20.80;;;;;;;4.29;72.89;102324.34;5062317;28;20167;-70
2022/03/10 02:45:48;;;;;;;38.63;21.05;;;;;;;4.22;73.97;102327.34;5054883;28;20028;-69
2022/03/10 02:48:14;;;;;;;42.50;21.77;;;;;;;4.15;74.01;102325.13;5051278;28;20404;-70
2022/03/10 02:50:40;;;;;;;46.25;22.52;;;;;;;4.04;75.15;102327.00;5065829;28;20020;-70
2022/03/10 02:53:05;;;;;;;45.33;23.13;;;;;;;3.95;76.34;102332.50;5060298;28;20048;-70
2022/03/10 02:55:31;;;;;;;41.45;22.20;;;;;;;3.97;77.28;102325.69;5065261;28;20033;-70
2022/03/10 02:57:57;;;;;;;48.55;23.75;;;;;;;3.86;77.54;102331.88;5062930;28;20025;-70
2022/03/10 03:00:22;;;;;;;42.03;21.98;;;;;;;3.79;77.49;102337.47;5062436;28;20090;-70
2022/03/10 03:02:48;;;;;;;38.28;20.75;;;;;;;3.80;78.27;102336.66;5060630;28;20036;-70
2022/03/10 03:05:13;;;;;;;45.17;21.90;;;;;;;3.82;77.74;102337.69;5058527;28;20028;-69
2022/03/10 03:07:40;;;;;;;42.92;23.08;;;;;;;3.79;77.58;102338.38;5068479;28;20021;-70
2022/03/10 03:10:06;;;;;;;40.10;22.13;;;;;;;3.72;78.78;102344.84;5057620;28;20119;-70
2022/03/10 03:12:32;;;;;;;41.97;21.70;;;;;;;3.66;78.34;102346.13;5063380;28;20040;-70
2022/03/10 03:14:58;;;;;;;42.28;22.40;;;;;;;3.67;78.09;102346.22;5070767;28;20033;-70
2022/03/10 03:17:24;;;;;;;47.60;22.48;;;;;;;3.67;78.30;102345.34;5039903;28;20029;-70
2022/03/10 03:19:53;;;;;;;42.88;22.08;;;;;;;3.66;79.15;102349.66;5068959;28;20055;-70
2022/03/10 03:22:18;;;;;;;52.38;21.63;;;;;;;3.69;78.86;102347.25;5066462;28;20041;-70
2022/03/10 03:24:45;;;;;;;45.42;21.02;;;;;;;3.67;78.50;102348.84;5059764;28;20021;-69
2022/03/10 03:27:11;;;;;;;43.42;23.33;;;;;;;3.70;80.42;102354.28;5060460;28;20037;-70
2022/03/10 03:29:36;;;;;;;51.22;23.73;;;;;;;3.70;79.77;102351.69;5038485;28;20021;-70
2022/03/10 03:32:02;;;;;;;50.13;23.73;;;;;;;3.73;80.14;102345.78;5064569;28;20399;-70
2022/03/10 03:34:27;;;;;;;46.55;22.00;;;;;;;3.68;80.10;102355.84;5043191;28;20033;-69
2022/03/10 03:36:53;;;;;;;41.20;21.48;;;;;;;3.73;79.85;102361.41;5058925;28;20131;-69
2022/03/10 03:39:18;;;;;;;40.80;21.05;;;;;;;3.78;80.42;102361.69;5046635;28;20021;-70
2022/03/10 03:41:44;;;;;;;43.55;21.42;;;;;;;3.76;80.07;102356.41;5052430;28;20390;-70
2022/03/10 03:44:10;;;;;;;42.35;22.35;;;;;;;3.78;80.24;102360.00;5054365;28;20040;-71
2022/03/10 03:46:37;;;;;;;44.75;21.90;;;;;;;3.79;80.02;102360.91;5057041;28;20110;-70
2022/03/10 03:49:02;;;;;;;41.72;23.45;;;;;;;3.81;80.37;102364.50;5059668;28;20033;-71
2022/03/10 03:51:28;;;;;;;44.03;22.85;;;;;;;3.78;81.28;102362.59;5062371;28;20036;-70
2022/03/10 03:53:53;;;;;;;42.97;21.30;;;;;;;3.77;81.33;102370.31;5060198;28;20033;-71
2022/03/10 03:56:19;;;;;;;45.33;22.23;;;;;;;3.75;80.79;102370.19;5071654;28;20028;-70
2022/03/10 03:58:45;;;;;;;40.38;21.77;;;;;;;3.78;80.85;102372.13;5069940;28;20056;-70
2022/03/10 04:01:10;;;;;;;43.55;21.27;;;;;;;3.78;80.55;102374.72;5041926;28;20068;-70
2022/03/10 04:03:36;;;;;;;39.90;22.52;;;;;;;3.83;81.55;102370.75;5063429;28;20537;-71
2022/03/10 04:06:01;;;;;;;44.00;21.50;;;;;;;3.78;80.67;102373.00;5066938;28;20025;-71
2022/03/10 04:08:27;;;;;;;40.25;21.42;;;;;;;3.72;80.90;102376.09;5059270;28;20103;-70
2022/03/10 04:10:52;;;;;;;47.40;22.67;;;;;;;3.65;81.49;102376.47;5048215;28;20057;-70
2022/03/10 04:13:21;;;;;;;45.30;22.50;;;;;;;3.64;82.41;102379.88;5061986;28;20033;-71
2022/03/10 04:15:49;;;;;;;48.53;22.50;;;;;;;3.63;81.85;102383.25;5056692;28;20056;-70
2022/03/10 04:18:15;;;;;;;41.38;21.48;;;;;;;3.64;82.37;102381.59;5060489;28;20025;-70
2022/03/10 04:20:41;;;;;;;40.17;21.05;;;;;;;3.59;82.03;102388.16;5065398;28;20027;-70
2022/03/10 04:23:06;;;;;;;41.17;21.70;;;;;;;3.60;83.60;102395.19;5060972;28;20028;-70
2022/03/10 04:25:31;;;;;;;40.28;22.98;;;;;;;3.58;82.99;102388.94;5064474;28;20028;-70
2022/03/10 04:27:56;;;;;;;43.00;20.55;;;;;;;3.59;83.47;102394.25;5050248;28;20029;-70
2022/03/10 04:30:22;;;;;;;42.03;21.45;;;;;;;3.59;83.87;102394.25;5060914;28;20044;-70
2022/03/10 04:32:51;;;;;;;50.80;21.85;;;;;;;3.52;83.04;102399.84;5051412;28;20178;-70
2022/03/10 04:35:18;;;;;;;42.42;23.23;;;;;;;3.56;83.36;102394.06;5053169;28;20055;-70
2022/03/10 04:37:44;;;;;;;44.03;23.10;;;;;;;3.56;83.32;102396.66;5059304;28;20033;-70
2022/03/10 04:40:11;;;;;;;43.45;21.90;;;;;;;3.53;83.23;102389.53;5062620;28;20028;-71
2022/03/10 04:42:38;;;;;;;40.65;22.25;;;;;;;3.50;83.09;102394.53;5064455;28;20112;-70
2022/03/10 04:45:05;;;;;;;41.00;22.83;;;;;;;3.54;83.12;102387.81;5062799;28;20029;-70
2022/03/10 04:47:30;;;;;;;41.00;21.77;;;;;;;3.51;83.18;102390.22;5055954;28;20028;-71
2022/03/10 04:49:56;;;;;;;47.55;23.50;;;;;;;3.49;83.55;102386.63;5062780;28;20029;-70
2022/03/10 04:52:25;;;;;;;42.88;21.73;;;;;;;3.49;83.40;102384.03;5068832;28;20128;-70
2022/03/10 04:54:50;;;;;;;48.28;22.30;;;;;;;3.48;83.17;102382.19;5064510;28;20029;-70
2022/03/10 04:57:15;;;;;;;43.65;23.88;;;;;;;3.46;82.82;102376.91;5055393;28;20036;-70
2022/03/10 04:59:41;;;;;;;50.03;22.77;;;;;;;3.43;82.52;102379.28;5061280;28;20051;-70
2022/03/10 05:02:06;;;;;;;42.88;21.85;;;;;;;3.41;82.28;102377.38;5068150;28;20027;-70
2022/03/10 05:04:31;;;;;;;39.88;21.88;;;;;;;3.40;82.52;102380.75;5055549;28;20029;-70
2022/03/10 05:06:57;;;;;;;42.47;22.42;;;;;;;3.38;82.64;102373.75;5061894;28;20024;-70
2022/03/10 05:09:22;;;;;;;48.08;23.08;;;;;;;3.38;82.85;102378.06;5066102;28;20028;-69
2022/03/10 05:11:47;;;;;;;40.58;21.88;;;;;;;3.40;83.10;102378.16;5066622;28;20067;-69
2022/03/10 05:14:13;;;;;;;45.00;21.65;;;;;;;3.31;82.74;102366.31;5068104;28;20072;-70
2022/03/10 05:16:38;;;;;;;45.55;21.73;;;;;;;3.28;82.82;102371.28;5039843;28;20033;-70
2022/03/10 05:19:03;;;;;;;45.90;22.80;;;;;;;3.26;83.88;102375.47;5064760;28;20127;-70
2022/03/10 05:21:28;;;;;;;43.78;23.50;;;;;;;3.18;83.79;102379.25;5054757;28;20037;-70
2022/03/10 05:23:54;;;;;;;45.15;23.15;;;;;;;3.16;84.80;102386.00;5057911;28;20099;-70
2022/03/10 05:26:19;;;;;;;41.33;22.58;;;;;;;3.15;84.72;102385.13;5062026;28;20028;-69
2022/03/10 05:28:45;;;;;;;39.20;20.92;;;;;;;3.12;85.14;102389.19;5069034;28;20024;-70
2022/03/10 05:31:10;;;;;;;42.50;22.40;;;;;;;3.11;85.47;102388.28;5072235;28;20024;-70
2022/03/10 05:33:35;;;;;;;43.72;23.10;;;;;;;3.04;85.49;102386.06;5053729;28;20028;-69
2022/03/10 05:36:01;;;;;;;45.70;23.38;;;;;;;3.00;85.21;102390.13;5063027;28;20031;-70
2022/03/10 05:38:26;;;;;;;41.65;22.60;;;;;;;3.03;85.96;102392.03;5059325;28;20025;-70
2022/03/10 05:40:52;;;;;;;40.83;22.10;;;;;;;3.01;85.55;102389.34;5055481;28;20193;-70
2022/03/10 05:43:17;;;;;;;41.25;21.98;;;;;;;3.00;85.79;102387.53;5056305;28;20024;-69
2022/03/10 05:45:42;;;;;;;39.85;21.10;;;;;;;2.98;85.67;102389.09;5074984;28;20039;-70
2022/03/10 05:48:08;;;;;;;46.95;23.17;;;;;;;3.00;86.29;102384.03;5053889;28;20048;-69
2022/03/10 05:50:35;;;;;;;40.10;21.85;;;;;;;3.01;86.52;102388.41;5067023;28;20078;-69
2022/03/10 05:53:00;;;;;;;46.20;21.50;;;;;;;2.97;85.92;102379.50;5065829;28;20425;-70
2022/03/10 05:55:26;;;;;;;41.05;21.05;;;;;;;2.96;86.05;102377.69;5046944;28;20050;-70
2022/03/10 05:57:52;;;;;;;43.97;23.13;;;;;;;2.96;85.64;102377.69;5069882;28;20455;-70
2022/03/10 06:00:17;;;;;;;42.60;23.42;;;;;;;2.97;85.74;102371.72;5057325;28;20029;-70
2022/03/10 06:02:43;;;;;;;41.40;21.92;;;;;;;2.98;85.51;102380.41;5054038;28;20029;-70
2022/03/10 06:05:08;;;;;;;41.80;22.33;;;;;;;2.96;85.59;102384.59;5060648;28;20033;-69
2022/03/10 06:07:34;;;;;;;48.40;23.00;;;;;;;2.94;85.83;102384.47;5059531;28;20060;-70
2022/03/10 06:10:00;;;;;;;41.28;22.38;;;;;;;2.92;86.48;102391.28;5056914;28;20053;-70
2022/03/10 06:12:30;;;;;;;43.28;22.05;;;;;;;2.90;85.70;102379.84;5065148;28;20507;-70
2022/03/10 06:15:01;;;;;;;46.03;23.20;;;;;;;2.87;85.86;102384.81;5060675;28;20385;-70
2022/03/10 06:17:26;;;;;;;44.38;22.45;;;;;;;2.82;86.19;102379.31;5062899;28;20438;-70
2022/03/10 06:19:52;;;;;;;52.47;21.58;;;;;;;2.83;86.23;102380.19;5058477;28;20029;-70
2022/03/10 06:22:19;;;;;;;52.08;23.83;;;;;;;2.84;85.67;102382.00;5040077;28;20025;-70
2022/03/10 06:24:45;;;;;;;49.90;22.90;;;;;;;2.82;85.94;102383.56;5068532;28;20028;-70
2022/03/10 06:27:12;;;;;;;44.50;23.25;;;;;;;2.81;86.19;102381.78;5059988;28;20087;-70
2022/03/10 06:29:38;;;;;;;43.70;22.73;;;;;;;2.76;86.32;102380.53;5058758;28;20096;-71
2022/03/10 06:32:04;;;;;;;50.58;21.55;;;;;;;2.76;85.97;102383.16;5055536;28;20484;-76
2022/03/10 06:34:29;;;;;;;45.83;23.58;;;;;;;2.80;86.40;102385.19;5063992;28;20023;-70
2022/03/10 06:36:56;;;;;;;53.78;22.13;;;;;;;2.77;86.55;102384.94;5044087;28;20029;-69
2022/03/10 06:39:22;;;;;;;41.42;23.30;;;;;;;2.78;86.30;102381.53;5062385;28;20476;-70
2022/03/10 06:41:47;;;;;;;55.00;23.25;;;;;;;2.79;86.07;102381.66;5068921;28;20081;-70
2022/03/10 06:44:12;;;;;;;68.00;24.88;;;;;;;2.81;85.63;102381.78;5039451;28;20574;-69
2022/03/10 06:46:37;;;;;;;60.30;22.83;;;;;;;2.79;86.32;102385.97;5056754;28;20114;-70
2022/03/10 06:49:03;;;;;;;54.97;22.15;;;;;;;2.82;85.92;102388.78;5057248;28;20036;-70
2022/03/10 06:51:28;;;;;;;42.28;21.77;;;;;;;2.82;86.00;102387.09;5067658;28;20037;-70
2022/03/10 06:53:54;;;;;;;40.42;22.38;;;;;;;2.83;86.50;102391.47;5064622;28;20040;-70
2022/03/10 06:56:20;;;;;;;57.28;22.67;;;;;;;2.83;86.50;102396.69;5066908;28;20476;-70
2022/03/10 06:58:45;;;;;;;45.85;22.55;;;;;;;2.83;86.77;102403.59;5046874;28;20043;-70
2022/03/10 07:01:10;;;;;;;49.42;22.13;;;;;;;2.85;86.65;102402.03;5057388;28;20088;-70
2022/03/10 07:03:36;;;;;;;49.50;21.73;;;;;;;2.87;86.14;102403.03;5062750;28;20031;-69
2022/03/10 07:06:02;;;;;;;43.35;22.88;;;;;;;2.89;86.28;102406.66;5055920;28;20549;-69
2022/03/10 07:08:27;;;;;;;54.25;23.55;;;;;;;2.94;86.55;102397.47;5052538;28;20041;-69
2022/03/10 07:10:52;;;;;;;39.50;21.73;;;;;;;3.01;86.53;102404.00;5057108;28;20035;-70
2022/03/10 07:13:18;;;;;;;43.47;22.50;;;;;;;3.05;86.19;102406.03;5060033;28;20033;-70
2022/03/10 07:15:43;;;;;;;51.22;22.73;;;;;;;3.11;85.99;102414.31;5051381;28;20023;-71
2022/03/10 07:18:08;;;;;;;39.28;20.63;;;;;;;3.18;85.34;102410.44;5059199;28;20429;-71
2022/03/10 07:20:33;;;;;;;39.78;20.98;;;;;;;3.25;85.80;102411.78;5069476;28;20499;-72
2022/03/10 07:22:59;;;;;;;40.50;21.25;;;;;;;3.30;85.12;102415.63;5048038;28;20033;-72
2022/03/10 07:25:24;;;;;;;45.35;23.30;;;;;;;3.35;84.76;102420.38;5052363;28;20029;-73
2022/03/10 07:27:50;;;;;;;38.47;21.23;;;;;;;3.43;84.68;102418.31;5070606;28;20036;-70
2022/03/10 07:30:15;;;;;;;45.08;21.13;;;;;;;3.48;84.75;102426.44;5060162;28;20028;-71
2022/03/10 07:32:40;;;;;;;52.33;23.33;;;;;;;3.53;84.25;102420.75;5064721;28;20516;-71
2022/03/10 07:35:06;;;;;;;43.78;21.83;;;;;;;3.57;84.43;102424.50;5066772;28;20082;-75
2022/03/10 07:37:31;;;;;;;40.97;21.88;;;;;;;3.62;84.47;102423.13;5057420;28;20077;-75
2022/03/10 07:39:57;;;;;;;48.17;21.77;;;;;;;3.68;84.16;102415.72;5072717;28;20107;-74
2022/03/10 07:42:22;;;;;;;42.92;22.55;;;;;;;3.76;83.68;102421.47;5065689;28;20465;-77
2022/03/10 07:44:47;;;;;;;42.22;22.08;;;;;;;3.83;82.72;102420.22;5045401;28;20032;-77
2022/03/10 07:47:12;;;;;;;43.60;22.80;;;;;;;3.89;82.40;102420.63;5072659;28;20488;-75
2022/03/10 07:49:38;;;;;;;43.08;21.80;;;;;;;3.96;82.07;102422.88;5069690;28;20082;-76
2022/03/10 07:52:04;;;;;;;49.83;23.50;;;;;;;4.01;81.54;102418.84;5050094;28;20048;-76
2022/03/10 07:54:29;;;;;;;50.10;22.58;;;;;;;4.05;81.89;102417.38;5065812;28;20035;-76
2022/03/10 07:56:55;;;;;;;39.53;21.67;;;;;;;4.12;81.42;102414.38;5062451;28;20025;-76
2022/03/10 07:59:20;;;;;;;37.45;21.30;;;;;;;4.17;81.34;102412.09;5068770;28;20028;-77
2022/03/10 08:01:46;;;;;;;46.47;22.23;;;;;;;4.21;81.19;102414.13;5062889;28;20194;-75
2022/03/10 08:04:11;;;;;;;40.75;21.90;;;;;;;4.25;81.12;102407.44;5066201;28;20454;-75
2022/03/10 08:06:36;;;;;;;40.25;23.13;;;;;;;4.30;80.77;102412.16;5064688;28;20029;-76
2022/03/10 08:09:02;;;;;;;43.47;21.60;;;;;;;4.35;81.03;102418.56;5069288;28;20020;-75
2022/03/10 08:11:28;;;;;;;45.28;22.83;;;;;;;4.42;81.04;102429.41;5065862;28;20032;-76
2022/03/10 08:13:54;;;;;;;49.90;23.58;;;;;;;4.46;81.30;102416.66;5065143;28;20429;-76
2022/03/10 08:16:19;;;;;;;43.85;22.40;;;;;;;4.50;81.03;102416.09;5066967;28;20024;-75
2022/03/10 08:18:45;;;;;;;40.55;21.95;;;;;;;4.55;80.92;102417.28;5070927;28;20115;-76
2022/03/10 08:21:11;;;;;;;39.45;21.85;;;;;;;4.63;80.83;102411.69;5047220;28;20017;-76
2022/03/10 08:23:36;;;;;;;41.60;23.30;;;;;;;4.71;80.97;102408.78;5065212;28;20451;-75
2022/03/10 08:26:02;;;;;;;42.15;22.40;;;;;;;4.81;80.29;102404.16;5063107;28;20061;-76
2022/03/10 08:28:28;;;;;;;40.58;21.00;;;;;;;4.90;80.58;102396.94;5062691;28;20025;-76
2022/03/10 08:30:53;;;;;;;46.33;21.88;;;;;;;4.98;79.80;102398.34;5050893;28;20035;-75
2022/03/10 08:33:20;;;;;;;46.00;21.52;;;;;;;5.06;80.21;102399.72;5066451;28;20025;-77
2022/03/10 08:35:45;;;;;;;45.47;22.85;;;;;;;5.12;79.75;102395.72;5060168;28;20021;-75
2022/03/10 08:38:11;;;;;;;48.05;22.75;;;;;;;5.21;79.80;102391.09;5070002;28;20051;-75
2022/03/10 08:40:36;;;;;;;38.53;22.55;;;;;;;5.29;79.95;102396.75;5069916;28;20024;-75
2022/03/10 08:43:02;;;;;;;40.78;22.70;;;;;;;5.38;79.54;102394.75;5052404;28;20028;-74
2022/03/10 08:45:28;;;;;;;37.33;20.92;;;;;;;5.45;79.37;102390.81;5063433;28;20032;-75
2022/03/10 08:47:55;;;;;;;43.40;22.83;;;;;;;5.54;78.98;102388.78;5061369;28;20032;-75
2022/03/10 08:50:23;;;;;;;40.40;22.77;;;;;;;5.65;78.42;102385.09;5054971;28;20056;-74
2022/03/10 08:52:49;;;;;;;57.03;23.10;;;;;;;5.78;78.41;102388.47;5080321;28;20053;-74
2022/03/10 08:55:14;;;;;;;73.75;23.40;;;;;;;5.94;78.12;102392.91;5070098;28;20024;-75
2022/03/10 08:57:40;;;;;;;39.38;23.08;;;;;;;6.01;77.88;102389.88;5065105;28;20017;-74
2022/03/10 09:00:09;;;;;;;45.30;21.92;;;;;;;6.11;76.90;102380.91;5057508;28;20025;-75
2022/03/10 09:02:34;;;;;;;48.83;23.05;;;;;;;6.23;76.43;102381.63;5067687;28;20044;-75
2022/03/10 09:04:59;;;;;;;39.72;22.55;;;;;;;6.36;75.90;102383.25;5061812;28;20422;-75
2022/03/10 09:07:25;;;;;;;55.67;23.98;;;;;;;6.55;75.15;102382.59;5073813;28;20478;-75
2022/03/10 09:09:50;;;;;;;37.72;22.15;;;;;;;6.75;74.62;102373.28;5071039;28;20032;-75
2022/03/10 09:12:16;;;;;;;64.55;22.30;;;;;;;6.95;73.62;102379.66;5062182;28;20024;-75
2022/03/10 09:14:41;;;;;;;51.10;23.90;;;;;;;7.17;72.77;102375.63;5061690;28;20028;-74
2022/03/10 09:17:06;;;;;;;50.88;21.73;;;;;;;7.30;71.94;102379.78;5062767;28;20013;-74
2022/03/10 09:19:32;;;;;;;104.68;26.92;;;;;;;7.48;72.12;102369.44;5063550;28;20054;-74
2022/03/10 09:21:58;;;;;;;84.90;24.55;;;;;;;7.65;71.70;102367.69;5066713;28;20472;-75
2022/03/10 09:24:24;;;;;;;45.72;21.23;;;;;;;7.91;71.17;102364.75;5061345;28;20028;-75
2022/03/10 09:26:49;;;;;;;69.63;23.35;;;;;;;8.13;70.46;102370.19;5070427;28;20081;-75
2022/03/10 09:29:15;;;;;;;47.15;22.73;;;;;;;8.36;69.17;102363.50;5063188;28;20029;-75
2022/03/10 09:31:40;;;;;;;48.88;23.92;;;;;;;8.61;68.69;102352.50;5061067;28;20031;-75
2022/03/10 09:34:05;;;;;;;49.03;24.05;;;;;;;8.86;67.55;102351.09;5050022;28;20085;-74
2022/03/10 09:36:31;;;;;;;41.58;22.25;;;;;;;9.06;66.17;102352.94;5065416;28;20052;-75
2022/03/10 09:38:57;;;;;;;114.13;27.38;;;;;;;9.31;66.53;102343.56;5066724;28;20553;-75
2022/03/10 09:41:22;;;;;;;44.47;21.70;;;;;;;9.64;64.77;102345.91;5061647;28;20029;-75
2022/03/10 09:43:49;;;;;;;35.22;21.80;;;;;;;9.90;64.77;102348.78;5060146;28;20072;-74
2022/03/10 09:46:15;;;;;;;39.78;22.95;;;;;;;10.19;62.05;102349.16;5063648;28;20116;-74
2022/03/10 09:48:41;;;;;;;48.38;23.63;;;;;;;10.33;61.76;102345.38;5043786;28;20117;-76
2022/03/10 09:51:07;;;;;;;40.08;22.92;;;;;;;10.73;61.47;102339.16;5063619;28;20055;-73
2022/03/10 09:53:34;;;;;;;36.60;20.77;;;;;;;10.99;60.03;102341.91;5036424;28;20068;-74
2022/03/10 09:56:01;;;;;;;41.20;22.67;;;;;;;10.99;60.32;102341.00;5051817;28;20597;-74
2022/03/10 09:58:26;;;;;;;39.72;22.52;;;;;;;11.25;58.57;102345.53;5030672;28;20021;-75
2022/03/10 10:01:03;;;;;;;34.17;20.52;;;;;;;11.42;58.83;102335.63;5036287;28;20377;-74
2022/03/10 10:03:29;;;;;;;35.20;21.08;;;;;;;11.64;57.95;102332.03;5045595;28;20033;-75
2022/03/10 10:05:59;;;;;;;35.45;21.48;;;;;;;11.77;57.79;102335.13;5019346;28;20029;-75
2022/03/10 10:08:25;;;;;;;41.22;21.83;;;;;;;11.91;56.78;102327.69;5041455;28;20036;-75
2022/03/10 10:10:53;;;;;;;58.08;22.45;;;;;;;11.76;57.18;102328.94;5042337;28;20453;-73
2022/03/10 10:13:33;;;;;;;71.30;24.48;;;;;;;11.97;56.85;102333.22;5037215;28;20028;-74
2022/03/10 10:16:08;;;;;;;43.03;21.02;;;;;;;12.13;57.83;102337.28;5036683;28;20041;-75
2022/03/10 10:18:35;;;;;;;77.47;23.85;;;;;;;12.24;57.29;102321.81;5043570;28;20021;-74
2022/03/10 10:21:01;;;;;;;60.95;23.45;;;;;;;12.64;56.69;102333.66;5045420;28;20051;-74
2022/03/10 10:23:29;;;;;;;60.28;23.77;;;;;;;12.69;54.91;102324.16;5025527;28;20366;-76
2022/03/10 10:26:02;;;;;;;36.65;22.10;;;;;;;12.70;54.52;102314.50;5052644;28;20032;-76
2022/03/10 10:28:32;;;;;;;51.80;23.42;;;;;;;12.94;55.50;102320.53;5040508;28;20394;-75
2022/03/10 10:31:25;;;;;;;49.22;23.13;;;;;;;13.11;54.34;102309.56;5026873;28;20384;-75
2022/03/10 10:34:05;;;;;;;41.15;22.00;;;;;;;13.15;53.52;102314.97;5039599;28;20110;-74
2022/03/10 10:36:33;;;;;;;43.25;21.67;;;;;;;13.37;52.96;102313.00;5041994;28;20021;-74
2022/03/10 10:39:07;;;;;;;117.80;27.02;;;;;;;13.30;52.24;102313.66;5041626;28;20024;-74
2022/03/10 10:41:33;;;;;;;31.70;21.15;;;;;;;13.59;52.32;102314.53;5037348;28;20026;-75
2022/03/10 10:44:01;;;;;;;45.53;23.00;;;;;;;13.65;54.61;102324.38;5036571;28;20025;-76
2022/03/10 10:46:32;;;;;;;35.45;21.48;;;;;;;13.96;53.17;102315.50;5039382;28;20384;-73
2022/03/10 10:49:03;;;;;;;37.05;22.73;;;;;;;14.28;51.34;102307.50;5047257;28;20023;-75
2022/03/10 10:51:34;;;;;;;45.20;20.83;;;;;;;14.45;50.18;102305.25;5032782;28;20036;-75
2022/03/10 10:54:02;;;;;;;71.22;24.08;;;;;;;14.60;50.84;102307.38;5064799;28;20040;-74
2022/03/10 10:56:28;;;;;;;38.00;21.70;;;;;;;14.88;51.69;102305.41;5031486;28;20048;-75
2022/03/10 10:58:54;;;;;;;35.08;22.25;;;;;;;15.12;50.23;102296.16;5059090;28;20028;-74
2022/03/10 11:01:31;;;;;;;36.92;21.48;;;;;;;15.70;47.12;102293.78;5042288;28;20033;-74
2022/03/10 11:03:57;;;;;;;33.05;22.08;;;;;;;15.98;47.16;102289.91;5055058;28;20032;-75
2022/03/10 11:06:22;;;;;;;34.92;22.27;;;;;;;16.08;48.10;102293.59;5061123;28;20033;-73
2022/03/10 11:08:48;;;;;;;35.88;23.02;;;;;;;16.06;47.44;102286.47;5065258;28;20507;-73
2022/03/10 11:11:15;;;;;;;43.25;21.80;;;;;;;16.39;46.29;102279.94;5056831;28;20056;-73
2022/03/10 11:13:40;;;;;;;38.08;21.58;;;;;;;16.64;46.17;102276.78;5068355;28;20032;-74
2022/03/10 11:16:07;;;;;;;57.50;23.30;;;;;;;16.61;45.25;102275.84;5069279;28;20086;-74
2022/03/10 11:18:33;;;;;;;43.97;22.40;;;;;;;17.02;43.63;102270.22;5047526;28;20420;-73